createdAt,value
2022-12-28T00:01:15.844Z,62.31
2022-12-28T00:03:42.825Z,62.37
2022-12-28T00:06:09.715Z,62.55
2022-12-28T00:08:36.662Z,62.87
2022-12-28T00:11:27.405Z,63.13
2022-12-28T00:13:59.496Z,63.19
2022-12-28T00:16:33.488Z,62.89
2022-12-28T00:19:01.663Z,63.58
2022-12-28T00:21:29.083Z,63.16
2022-12-28T00:23:59.753Z,62.81
2022-12-28T00:26:27.828Z,62.43
2022-12-28T00:28:59.978Z,62.07
2022-12-28T00:31:30.537Z,61.78
2022-12-28T00:34:00.749Z,61.56
2022-12-28T00:37:08.970Z,61.56
2022-12-28T00:39:14.848Z,61.67
2022-12-28T00:41:41.727Z,61.81
2022-12-28T00:44:08.867Z,62.03
2022-12-28T00:46:35.952Z,62.27
2022-12-28T00:49:03.023Z,62.52
2022-12-28T00:51:29.913Z,62.94
2022-12-28T00:53:56.898Z,63.10
2022-12-28T00:56:23.797Z,63.28
2022-12-28T00:58:50.678Z,63.84
2022-12-28T01:01:20.077Z,64.03
2022-12-28T01:03:47.196Z,63.69
2022-12-28T01:06:15.147Z,64.04
2022-12-28T01:08:44.453Z,64.15
2022-12-28T01:11:20.105Z,64.30
2022-12-28T01:13:48.015Z,64.43
2022-12-28T01:16:25.596Z,64.34
2022-12-28T01:18:54.083Z,64.24
2022-12-28T01:21:22.298Z,63.81
2022-12-28T01:23:49.498Z,62.87
2022-12-28T01:26:16.710Z,62.64
2022-12-28T01:28:45.036Z,62.70
2022-12-28T01:31:13.580Z,62.62
2022-12-28T01:33:41.118Z,62.54
2022-12-28T01:36:08.694Z,62.85
2022-12-28T01:38:37.079Z,62.82
2022-12-28T01:41:07.146Z,62.45
2022-12-28T01:43:41.320Z,62.03
2022-12-28T01:46:09.992Z,61.88
2022-12-28T01:48:43.983Z,61.57
2022-12-28T01:51:14.294Z,61.21
2022-12-28T01:53:43.421Z,61.29
2022-12-28T01:56:10.247Z,61.45
2022-12-28T01:58:37.273Z,61.22
2022-12-28T02:01:06.618Z,61.19
2022-12-28T02:03:33.631Z,61.12
2022-12-28T02:06:04.787Z,61.22
2022-12-28T02:08:58.639Z,61.11
2022-12-28T02:11:25.515Z,61.07
2022-12-28T02:13:54.676Z,61.12
2022-12-28T02:16:24.618Z,61.00
2022-12-28T02:18:53.830Z,60.85
2022-12-28T02:21:35.087Z,60.96
2022-12-28T02:24:11.199Z,61.03
2022-12-28T02:26:58.288Z,60.90
2022-12-28T02:29:31.495Z,60.83
2022-12-28T02:32:23.349Z,61.13
2022-12-28T02:34:57.505Z,61.11
2022-12-28T02:37:31.190Z,61.08
2022-12-28T02:40:04.939Z,61.25
2022-12-28T02:42:31.860Z,61.19
2022-12-28T02:45:17.316Z,61.36
2022-12-28T02:48:05.290Z,61.50
2022-12-28T02:50:52.162Z,61.47
2022-12-28T02:53:49.520Z,61.57
2022-12-28T02:56:33.693Z,61.80
2022-12-28T02:59:26.620Z,61.83
2022-12-28T03:02:34.506Z,62.28
2022-12-28T03:05:09.762Z,62.46
2022-12-28T03:08:17.512Z,62.91
2022-12-28T03:10:49.670Z,63.07
2022-12-28T03:13:45.523Z,63.02
2022-12-28T03:17:00.316Z,63.01
2022-12-28T03:19:49.360Z,62.97
2022-12-28T03:22:34.945Z,62.98
2022-12-28T03:25:22.971Z,63.14
2022-12-28T03:28:09.259Z,63.12
2022-12-28T03:30:55.496Z,63.02
2022-12-28T03:33:22.718Z,62.74
2022-12-28T03:36:08.434Z,62.67
2022-12-28T03:39:14.720Z,62.37
2022-12-28T03:41:44.555Z,62.35
2022-12-28T03:44:27.844Z,62.55
2022-12-28T03:46:57.452Z,62.68
2022-12-28T03:49:26.150Z,62.69
2022-12-28T03:51:53.834Z,62.96
2022-12-28T03:54:20.712Z,63.25
2022-12-28T03:56:48.539Z,63.51
2022-12-28T03:59:16.519Z,63.57
2022-12-28T04:01:44.966Z,63.76
2022-12-28T04:04:14.431Z,63.90
2022-12-28T04:06:44.468Z,63.99
2022-12-28T04:09:11.330Z,64.04
2022-12-28T04:11:42.856Z,64.08
2022-12-28T04:14:16.464Z,64.18
2022-12-28T04:16:43.499Z,64.28
2022-12-28T04:19:14.056Z,64.31
2022-12-28T04:21:40.992Z,64.68
2022-12-28T04:24:08.113Z,64.82
2022-12-28T04:26:36.139Z,65.05
2022-12-28T04:29:03.127Z,65.01
2022-12-28T04:31:52.098Z,65.17
2022-12-28T04:34:20.080Z,65.40
2022-12-28T04:37:01.788Z,65.43
2022-12-28T04:39:28.723Z,65.42
2022-12-28T04:42:21.777Z,65.52
2022-12-28T04:44:51.069Z,65.49
2022-12-28T04:47:17.913Z,65.55
2022-12-28T04:49:44.823Z,65.56
2022-12-28T04:52:15.475Z,65.55
2022-12-28T04:54:42.383Z,65.63
2022-12-28T04:57:09.197Z,65.78
2022-12-28T04:59:36.062Z,65.87
2022-12-28T05:02:05.300Z,66.09
2022-12-28T05:04:32.289Z,66.30
2022-12-28T05:06:59.115Z,66.48
2022-12-28T05:09:26.063Z,66.67
2022-12-28T05:11:53.086Z,66.73
2022-12-28T05:14:19.943Z,66.91
2022-12-28T05:16:53.317Z,67.23
2022-12-28T05:19:20.132Z,67.10
2022-12-28T05:21:47.032Z,67.22
2022-12-28T05:24:13.929Z,67.12
2022-12-28T05:29:17.868Z,67.59
2022-12-28T05:31:47.406Z,67.77
2022-12-28T05:34:16.756Z,67.89
2022-12-28T05:36:44.130Z,68.12
2022-12-28T05:39:16.120Z,68.10
2022-12-28T05:41:43.735Z,68.03
2022-12-28T05:44:10.697Z,67.88
2022-12-28T05:46:37.865Z,67.92
2022-12-28T05:49:04.893Z,67.84
2022-12-28T05:51:39.665Z,67.83
2022-12-28T05:54:07.066Z,67.89
2022-12-28T05:56:34.630Z,67.87
2022-12-28T05:59:03.817Z,68.00
2022-12-28T06:01:36.211Z,68.05
2022-12-28T06:04:06.106Z,68.24
2022-12-28T06:06:36.390Z,68.40
2022-12-28T06:09:03.817Z,68.23
2022-12-28T06:11:31.147Z,68.69
2022-12-28T06:13:59.222Z,68.60
2022-12-28T06:16:28.225Z,68.53
2022-12-28T06:18:55.360Z,68.58
2022-12-28T06:21:24.290Z,68.87
2022-12-28T06:23:51.538Z,68.82
2022-12-28T06:26:20.894Z,68.96
2022-12-28T06:28:48.360Z,69.11
2022-12-28T06:31:19.815Z,69.34
2022-12-28T06:33:47.375Z,69.42
2022-12-28T06:36:24.848Z,69.42
2022-12-28T06:38:52.519Z,69.51
2022-12-28T06:41:22.429Z,69.81
2022-12-28T06:43:52.894Z,69.85
2022-12-28T06:46:21.243Z,69.80
2022-12-28T06:48:51.195Z,69.68
2022-12-28T06:51:22.958Z,69.88
2022-12-28T06:53:50.675Z,69.73
2022-12-28T06:56:29.560Z,69.85
2022-12-28T06:59:03.298Z,69.77
2022-12-28T07:01:36.131Z,69.95
2022-12-28T07:04:07.061Z,70.22
2022-12-28T07:06:38.314Z,70.26
2022-12-28T07:09:09.278Z,70.21
2022-12-28T07:11:36.861Z,70.22
2022-12-28T07:14:08.338Z,70.45
2022-12-28T07:19:06.211Z,70.38
2022-12-28T07:21:34.837Z,70.53
2022-12-28T07:24:07.809Z,70.58
2022-12-28T07:26:35.424Z,70.56
2022-12-28T07:29:05.783Z,70.78
2022-12-28T07:31:41.598Z,70.58
2022-12-28T07:34:16.459Z,70.24
2022-12-28T07:36:44.059Z,70.09
2022-12-28T07:39:11.139Z,70.10
2022-12-28T07:41:38.115Z,69.81
2022-12-28T07:44:09.843Z,69.31
2022-12-28T07:46:38.014Z,69.11
2022-12-28T07:49:05.000Z,68.95
2022-12-28T07:51:33.705Z,68.57
2022-12-28T07:54:00.913Z,67.92
2022-12-28T07:56:28.965Z,66.99
2022-12-28T07:59:01.444Z,66.50
2022-12-28T08:01:32.065Z,66.44
2022-12-28T08:04:01.080Z,66.13
2022-12-28T08:06:28.522Z,65.28
2022-12-28T08:08:58.079Z,64.71
2022-12-28T08:11:26.603Z,64.27
2022-12-28T08:13:54.704Z,63.56
2022-12-28T08:16:22.904Z,63.16
2022-12-28T08:18:50.131Z,62.27
2022-12-28T08:21:18.904Z,61.33
2022-12-28T08:23:46.040Z,60.15
2022-12-28T08:26:24.351Z,58.81
2022-12-28T08:28:53.779Z,58.29
2022-12-28T08:31:22.984Z,57.43
2022-12-28T08:33:50.415Z,56.98
2022-12-28T08:36:17.595Z,56.27
2022-12-28T08:38:44.700Z,55.73
2022-12-28T08:41:13.621Z,55.47
2022-12-28T08:43:40.754Z,54.31
2022-12-28T08:46:12.607Z,53.22
2022-12-28T08:48:40.235Z,52.45
2022-12-28T08:51:09.077Z,51.12
2022-12-28T08:53:36.636Z,49.38
2022-12-28T08:56:10.589Z,48.47
2022-12-28T08:58:38.387Z,47.02
2022-12-28T09:01:11.883Z,46.30
2022-12-28T09:03:40.437Z,45.59
2022-12-28T09:06:09.158Z,44.38
2022-12-28T09:08:36.404Z,43.49
2022-12-28T09:11:07.567Z,42.52
2022-12-28T09:13:34.761Z,42.27
2022-12-28T09:16:07.254Z,41.41
2022-12-28T09:18:34.779Z,40.98
2022-12-28T09:21:19.800Z,40.08
2022-12-28T09:23:47.259Z,39.67
2022-12-28T09:26:19.640Z,39.06
2022-12-28T09:28:59.527Z,38.58
2022-12-28T09:31:28.365Z,38.26
2022-12-28T09:36:51.553Z,37.54
2022-12-28T09:39:22.933Z,37.38
2022-12-28T09:41:50.246Z,37.27
2022-12-28T09:44:31.551Z,36.64
2022-12-28T09:47:00.449Z,36.84
2022-12-28T09:49:47.841Z,35.87
2022-12-28T09:52:30.985Z,35.93
2022-12-28T09:55:04.297Z,35.81
2022-12-28T09:57:35.979Z,35.75
2022-12-28T10:00:04.271Z,35.02
2022-12-28T10:02:35.046Z,34.91
2022-12-28T10:05:02.277Z,34.43
2022-12-28T10:07:29.125Z,34.63
2022-12-28T10:09:55.986Z,34.18
2022-12-28T10:12:24.772Z,33.56
2022-12-28T10:14:52.416Z,33.92
2022-12-28T10:17:22.541Z,33.38
2022-12-28T10:19:49.514Z,33.36
2022-12-28T10:22:18.885Z,33.36
2022-12-28T10:24:48.517Z,33.48
2022-12-28T10:27:22.198Z,33.22
2022-12-28T10:29:51.281Z,33.45
2022-12-28T10:32:19.378Z,33.06
2022-12-28T10:35:00.944Z,32.67
2022-12-28T10:37:30.251Z,32.33
2022-12-28T10:40:00.378Z,32.74
2022-12-28T10:42:41.557Z,32.45
2022-12-28T10:45:40.691Z,32.43
2022-12-28T10:48:18.745Z,32.16
2022-12-28T10:51:01.593Z,32.22
2022-12-28T10:53:32.824Z,31.64
2022-12-28T10:56:13.601Z,31.61
2022-12-28T10:58:41.658Z,31.11
2022-12-28T11:01:13.889Z,30.86
2022-12-28T11:04:02.676Z,31.17
2022-12-28T11:06:31.853Z,31.16
2022-12-28T11:09:06.751Z,30.93
2022-12-28T11:11:33.951Z,30.67
2022-12-28T11:14:25.881Z,30.65
2022-12-28T11:16:55.203Z,30.27
2022-12-28T11:19:22.607Z,30.55
2022-12-28T11:21:52.042Z,30.92
2022-12-28T11:24:21.276Z,30.37
2022-12-28T11:26:49.721Z,30.17
2022-12-28T11:29:19.568Z,30.29
2022-12-28T11:31:54.416Z,30.17
2022-12-28T11:34:24.080Z,30.42
2022-12-28T11:36:51.630Z,30.23
2022-12-28T11:39:27.792Z,30.76
2022-12-28T11:44:45.848Z,30.70
2022-12-28T11:47:18.146Z,31.11
2022-12-28T11:49:45.897Z,31.55
2022-12-28T11:52:27.149Z,32.18
2022-12-28T11:54:55.770Z,32.32
2022-12-28T11:57:42.462Z,32.49
2022-12-28T12:00:23.662Z,33.07
2022-12-28T12:02:53.958Z,32.89
2022-12-28T12:05:39.478Z,32.98
2022-12-28T12:08:13.647Z,33.32
2022-12-28T12:10:41.964Z,33.72
2022-12-28T12:13:42.956Z,33.66
2022-12-28T12:16:49.282Z,34.66
2022-12-28T12:19:23.543Z,35.16
2022-12-28T12:22:30.430Z,35.17
2022-12-28T12:25:02.599Z,36.24
2022-12-28T12:28:05.698Z,36.78
2022-12-28T12:30:33.415Z,36.43
2022-12-28T12:33:05.533Z,36.10
2022-12-28T12:35:59.608Z,36.59
2022-12-28T12:38:45.725Z,37.08
2022-12-28T12:41:42.331Z,36.69
2022-12-28T12:44:43.083Z,36.27
2022-12-28T12:47:36.030Z,36.59
2022-12-28T12:50:37.269Z,35.92
2022-12-28T12:53:23.165Z,36.03
2022-12-28T12:56:11.828Z,36.30
2022-12-28T12:59:16.808Z,36.57
2022-12-28T13:02:14.004Z,36.53
2022-12-28T13:04:41.771Z,36.68
2022-12-28T13:07:23.500Z,37.18
2022-12-28T13:09:50.955Z,37.08
2022-12-28T13:12:18.582Z,37.07
2022-12-28T13:14:51.490Z,37.55
2022-12-28T13:17:19.848Z,37.61
2022-12-28T13:19:46.894Z,37.50
2022-12-28T13:22:31.268Z,37.80
2022-12-28T13:25:01.376Z,37.82
2022-12-28T13:27:33.538Z,38.21
2022-12-28T13:30:00.585Z,38.68
2022-12-28T13:32:32.879Z,38.95
2022-12-28T13:35:19.371Z,39.20
2022-12-28T13:38:03.873Z,39.84
2022-12-28T13:40:33.342Z,40.11
2022-12-28T13:43:10.390Z,40.31
2022-12-28T13:45:37.243Z,40.86
2022-12-28T13:48:04.186Z,40.91
2022-12-28T13:50:32.689Z,41.43
2022-12-28T13:53:02.680Z,41.77
2022-12-28T13:55:38.238Z,42.18
2022-12-28T13:58:12.499Z,42.35
2022-12-28T14:00:39.487Z,42.73
2022-12-28T14:03:12.203Z,42.88
2022-12-28T14:05:45.216Z,43.56
2022-12-28T14:08:12.207Z,44.16
2022-12-28T14:10:39.552Z,44.40
2022-12-28T14:13:07.109Z,44.55
2022-12-28T14:15:41.073Z,44.39
2022-12-28T14:18:10.831Z,44.46
2022-12-28T14:20:51.814Z,44.97
2022-12-28T14:23:23.381Z,45.15
2022-12-28T14:25:51.551Z,45.52
2022-12-28T14:28:22.185Z,46.14
2022-12-28T14:30:53.968Z,46.59
2022-12-28T14:33:25.366Z,47.14
2022-12-28T14:35:58.172Z,47.72
2022-12-28T14:38:28.971Z,48.36
2022-12-28T14:40:57.378Z,48.58
2022-12-28T14:43:27.321Z,48.69
2022-12-28T14:46:06.878Z,49.17
2022-12-28T14:48:37.072Z,49.65
2022-12-28T14:51:17.292Z,49.82
2022-12-28T14:53:45.620Z,49.92
2022-12-28T14:56:18.676Z,50.04
2022-12-28T14:58:56.530Z,50.24
2022-12-28T15:01:24.137Z,50.95
2022-12-28T15:03:58.905Z,51.51
2022-12-28T15:06:27.246Z,51.90
2022-12-28T15:08:54.944Z,51.64
2022-12-28T15:11:23.619Z,52.00
2022-12-28T15:13:50.862Z,52.40
2022-12-28T15:16:19.593Z,52.84
2022-12-28T15:18:46.567Z,52.85
2022-12-28T15:21:18.537Z,52.93
2022-12-28T15:23:55.279Z,53.05
2022-12-28T15:26:28.127Z,53.50
2022-12-28T15:28:55.267Z,53.68
2022-12-28T15:31:22.204Z,53.74
2022-12-28T15:33:49.195Z,53.93
2022-12-28T15:36:18.261Z,54.34
2022-12-28T15:38:46.134Z,54.67
2022-12-28T15:41:31.509Z,54.94
2022-12-28T15:43:58.419Z,55.21
2022-12-28T15:46:25.384Z,55.47
2022-12-28T15:48:52.400Z,55.27
2022-12-28T15:51:19.349Z,55.03
2022-12-28T15:53:46.158Z,54.75
2022-12-28T15:56:40.295Z,55.39
2022-12-28T15:59:10.260Z,55.26
2022-12-28T16:01:37.233Z,55.45
2022-12-28T16:04:04.206Z,55.65
2022-12-28T16:06:32.462Z,55.79
2022-12-28T16:09:00.448Z,56.10
2022-12-28T16:11:31.216Z,56.03
2022-12-28T16:13:59.528Z,56.28
2022-12-28T16:16:27.801Z,56.58
2022-12-28T16:18:58.304Z,56.80
2022-12-28T16:21:27.708Z,56.62
2022-12-28T16:23:54.766Z,56.73
2022-12-28T16:26:21.989Z,56.97
2022-12-28T16:28:49.109Z,56.86
2022-12-28T16:31:29.902Z,56.80
2022-12-28T16:33:58.636Z,57.29
2022-12-28T16:36:25.834Z,57.56
2022-12-28T16:38:52.831Z,57.84
2022-12-28T16:41:23.043Z,57.57
2022-12-28T16:43:50.163Z,57.70
2022-12-28T16:46:17.134Z,58.07
2022-12-28T16:48:45.039Z,58.27
2022-12-28T16:51:12.468Z,58.34
2022-12-28T16:53:39.361Z,58.45
2022-12-28T16:56:07.249Z,58.32
2022-12-28T16:58:34.225Z,58.52
2022-12-28T17:01:06.561Z,58.44
2022-12-28T17:03:34.226Z,58.55
2022-12-28T17:06:01.632Z,58.52
2022-12-28T17:08:28.677Z,58.56
2022-12-28T17:10:55.528Z,58.54
2022-12-28T17:13:24.815Z,58.08
2022-12-28T17:15:51.769Z,58.14
2022-12-28T17:18:18.610Z,58.26
2022-12-28T17:20:45.994Z,58.53
2022-12-28T17:23:13.353Z,58.33
2022-12-28T17:25:40.313Z,58.55
2022-12-28T21:24:23.875Z,70.72
2022-12-28T21:26:51.253Z,69.81
2022-12-28T21:29:23.995Z,69.68
2022-12-28T21:31:53.463Z,69.44
2022-12-28T21:34:20.562Z,69.25
2022-12-28T21:36:47.401Z,69.21
2022-12-28T21:39:14.359Z,68.91
2022-12-28T21:41:50.611Z,68.75
2022-12-28T21:44:22.170Z,68.84
2022-12-28T21:46:50.934Z,68.85
2022-12-28T21:49:18.552Z,68.77
2022-12-28T21:51:45.562Z,68.82
2022-12-28T21:54:13.525Z,68.92
2022-12-28T21:56:40.785Z,68.87
2022-12-28T21:59:08.157Z,68.74
2022-12-28T22:01:54.015Z,68.83
2022-12-28T22:04:41.255Z,68.67
2022-12-28T22:07:09.324Z,68.67
2022-12-28T22:09:55.278Z,68.69
2022-12-28T22:12:34.919Z,68.71
2022-12-28T22:15:27.624Z,68.83
2022-12-28T22:17:56.630Z,68.95
2022-12-28T22:20:24.216Z,69.06
2022-12-28T22:22:55.611Z,69.07
2022-12-28T22:25:22.867Z,69.06
2022-12-28T22:27:49.789Z,69.11
2022-12-28T22:30:16.870Z,69.39
2022-12-28T22:32:44.198Z,69.27
2022-12-28T22:35:11.251Z,69.16
2022-12-28T22:37:38.285Z,69.14
2022-12-28T22:40:06.283Z,69.07
2022-12-28T22:42:33.303Z,69.32
2022-12-28T22:45:00.256Z,69.16
2022-12-28T22:47:28.366Z,69.28
2022-12-28T22:49:55.396Z,69.26
2022-12-28T22:52:22.414Z,69.48
2022-12-28T22:54:54.277Z,69.42
2022-12-28T22:57:21.215Z,69.50
2022-12-28T22:59:48.207Z,69.56
2022-12-28T23:02:15.667Z,69.45
2022-12-28T23:04:42.871Z,69.48
2022-12-28T23:07:09.918Z,69.38
2022-12-28T23:09:37.066Z,69.53
2022-12-28T23:12:04.075Z,69.60
2022-12-28T23:14:49.931Z,69.59
2022-12-28T23:17:17.049Z,69.63
2022-12-28T23:20:03.462Z,69.67
2022-12-28T23:22:50.571Z,69.80
2022-12-28T23:25:40.957Z,69.99
2022-12-28T23:28:10.781Z,69.96
2022-12-28T23:30:38.742Z,70.09
2022-12-28T23:33:05.636Z,70.03
2022-12-28T23:35:32.529Z,69.91
2022-12-28T23:37:59.450Z,69.75
2022-12-28T23:40:26.312Z,69.76
2022-12-28T23:42:54.498Z,69.68
2022-12-28T23:45:21.518Z,69.64
2022-12-28T23:47:48.480Z,69.64
2022-12-28T23:50:15.811Z,69.62
2022-12-28T23:52:42.585Z,69.67
2022-12-28T23:55:10.154Z,69.77
2022-12-28T23:57:37.236Z,69.76
